createdAt,value
2023-01-31T21:06:26.466Z,5.32
2023-01-31T21:09:30.684Z,5.28
2023-01-31T21:12:36.273Z,5.37
2023-01-31T21:15:39.974Z,5.30
2023-01-31T21:18:44.113Z,5.27
2023-01-31T21:21:48.740Z,5.26
2023-01-31T21:24:51.544Z,5.27
2023-01-31T21:27:57.037Z,5.28
2023-01-31T21:31:01.045Z,5.19
2023-01-31T21:34:06.819Z,5.12
2023-01-31T21:37:11.378Z,5.17
2023-01-31T21:40:14.930Z,5.14
2023-01-31T21:43:17.736Z,5.09
2023-01-31T21:46:20.753Z,5.07
2023-01-31T21:49:25.507Z,5.06
2023-01-31T21:52:29.613Z,5.09
2023-01-31T21:55:32.519Z,5.15
2023-01-31T21:58:36.140Z,5.07
2023-01-31T22:01:39.034Z,5.06
2023-01-31T22:04:41.914Z,5.11
2023-01-31T22:07:46.002Z,5.11
2023-01-31T22:10:48.774Z,5.13
2023-01-31T22:13:55.825Z,5.09
2023-01-31T22:16:59.026Z,5.02
2023-01-31T22:20:01.778Z,5.05
2023-01-31T22:23:05.854Z,5.03
2023-01-31T22:26:18.260Z,5.04
2023-01-31T22:29:21.136Z,5.08
2023-01-31T22:32:23.844Z,4.95
2023-01-31T22:35:26.567Z,4.99
2023-01-31T22:38:30.752Z,4.98
2023-01-31T22:41:33.484Z,4.96
2023-01-31T22:44:36.228Z,4.94
2023-01-31T22:47:39.067Z,5.02
2023-01-31T22:50:41.911Z,5.04
2023-01-31T22:53:46.313Z,5.00
2023-01-31T22:56:49.091Z,4.86
2023-01-31T22:59:51.843Z,4.85
2023-01-31T23:02:54.908Z,4.79
2023-01-31T23:05:57.586Z,4.71
2023-01-31T23:09:01.699Z,4.69
2023-01-31T23:12:04.756Z,4.69
2023-01-31T23:15:08.498Z,4.65
2023-01-31T23:18:11.237Z,4.61
2023-01-31T23:21:15.659Z,4.71
2023-01-31T23:24:19.960Z,4.69
2023-01-31T23:27:22.664Z,4.78
2023-01-31T23:30:26.303Z,4.74
2023-01-31T23:33:29.316Z,4.69
2023-01-31T23:36:32.057Z,4.76
2023-01-31T23:39:36.362Z,4.79
2023-01-31T23:42:39.038Z,4.78
2023-01-31T23:45:41.781Z,4.83
2023-01-31T23:48:44.534Z,4.85
2023-01-31T23:51:47.208Z,4.83
2023-01-31T23:54:51.366Z,4.76
2023-01-31T23:57:54.184Z,4.82
